Time;durP1;ratioP1;P1;durP2;ratioP2;P2;SDS_P1;SDS_P2;PMS_P1;PMS_P2;Temp;Humidity;BMP_temperature;BMP_pressure;BME280_temperature;BME280_humidity;BME280_pressure;Samples;Min_cycle;Max_cycle;Signal;HPM_P1;HPM_P2
2022/09/13 08:45:12;;;;;;;3.20;1.52;;;25.20;99.90;;;;;;6302979;22;20201;-79
2022/09/13 08:47:45;;;;;;;2.53;1.55;;;25.00;99.90;;;;;;6306359;22;20178;-77
2022/09/13 08:50:17;;;;;;;2.15;1.20;;;25.10;99.90;;;;;;6305406;22;20194;-77
2022/09/13 08:52:54;;;;;;;2.40;1.17;;;25.10;99.90;;;;;;6306673;22;20210;-74
2022/09/13 08:55:40;;;;;;;2.05;1.35;;;25.10;99.90;;;;;;6306001;22;20174;-81
2022/09/13 08:58:19;;;;;;;3.58;1.30;;;25.20;99.90;;;;;;6302876;22;20216;-77
2022/09/13 09:00:55;;;;;;;3.53;1.30;;;25.30;99.90;;;;;;6305844;22;20197;-77
2022/09/13 09:03:31;;;;;;;1.45;1.00;;;25.50;99.90;;;;;;6305773;22;20177;-77
2022/09/13 09:05:58;;;;;;;2.03;1.40;;;25.60;99.90;;;;;;6306102;22;20173;-77
2022/09/13 09:08:33;;;;;;;2.50;1.58;;;26.00;99.90;;;;;;6305728;22;20680;-77
2022/09/13 09:11:04;;;;;;;4.40;1.50;;;26.10;99.90;;;;;;6305908;22;20197;-74
2022/09/13 09:13:35;;;;;;;5.10;1.55;;;26.20;99.90;;;;;;6305226;22;20212;-72
2022/09/13 09:16:11;;;;;;;2.92;1.60;;;25.90;99.90;;;;;;6305604;22;20174;-73
2022/09/13 09:18:42;;;;;;;3.15;1.55;;;26.00;99.90;;;;;;6305869;22;20223;-73
2022/09/13 09:21:14;;;;;;;3.08;1.33;;;26.30;99.90;;;;;;6305733;22;20193;-73
2022/09/13 09:23:48;;;;;;;2.90;1.67;;;26.30;99.90;;;;;;6305554;22;20257;-74
2022/09/13 09:26:18;;;;;;;4.13;1.88;;;26.30;99.90;;;;;;6304692;22;20278;-74
2022/09/13 09:28:47;;;;;;;6.13;1.80;;;26.30;99.90;;;;;;6305449;22;20178;-74
2022/09/13 09:31:24;;;;;;;2.70;1.52;;;26.30;99.90;;;;;;6305346;22;20194;-74
2022/09/13 09:34:05;;;;;;;4.70;1.70;;;26.00;99.90;;;;;;6305611;22;20201;-74
2022/09/13 09:36:39;;;;;;;3.13;1.80;;;25.90;99.90;;;;;;6306080;22;20252;-75
2022/09/13 09:39:09;;;;;;;4.18;2.08;;;26.00;99.90;;;;;;6305355;22;20185;-74
2022/09/13 09:41:37;;;;;;;4.63;2.22;;;26.20;99.90;;;;;;6305138;22;20194;-77
2022/09/13 09:44:17;;;;;;;3.95;1.77;;;26.20;99.90;;;;;;6304713;22;20205;-78
2022/09/13 09:46:49;;;;;;;2.63;1.83;;;26.20;99.90;;;;;;6305728;22;20252;-75
2022/09/13 09:52:07;;;;;;;3.00;1.70;;;26.30;99.90;;;;;;6305051;22;20180;-76
2022/09/13 09:54:37;;;;;;;4.70;1.88;;;26.30;99.90;;;;;;6305585;22;20201;-82
2022/09/13 09:57:05;;;;;;;5.00;1.98;;;26.10;99.90;;;;;;6305526;22;20276;-79
2022/09/13 09:59:34;;;;;;;4.85;2.00;;;25.90;99.90;;;;;;6304854;22;20174;-78
2022/09/13 10:02:15;;;;;;;4.05;1.80;;;25.90;99.90;;;;;;6305335;22;20174;-77
2022/09/13 10:04:42;;;;;;;3.30;1.80;;;26.00;99.90;;;;;;6305381;22;20231;-76
2022/09/13 10:07:19;;;;;;;2.65;1.60;;;26.00;99.90;;;;;;6305354;22;20181;-73
2022/09/13 10:09:57;;;;;;;4.90;1.85;;;25.90;99.90;;;;;;6305194;22;20194;-73
2022/09/13 10:12:28;;;;;;;3.30;1.83;;;25.90;99.90;;;;;;6273750;22;20190;-72
2022/09/13 10:15:05;;;;;;;1.70;1.50;;;25.90;99.90;;;;;;6274065;22;20272;-73
2022/09/13 10:17:33;;;;;;;3.63;1.60;;;25.80;99.90;;;;;;6274707;22;20182;-75
2022/09/13 10:20:03;;;;;;;2.55;1.30;;;25.70;99.90;;;;;;6274241;22;20563;-77
2022/09/13 10:22:31;;;;;;;2.20;1.60;;;25.60;99.90;;;;;;6274630;22;20257;-75
2022/09/13 10:25:13;;;;;;;1.83;1.30;;;25.70;99.90;;;;;;6275091;22;20261;-74
2022/09/13 10:27:47;;;;;;;2.88;1.45;;;25.60;99.90;;;;;;6274619;22;20175;-78
2022/09/13 10:30:32;;;;;;;1.70;1.27;;;25.80;99.90;;;;;;6274471;22;20610;-77
2022/09/13 10:33:02;;;;;;;2.08;1.15;;;25.80;99.90;;;;;;6274667;22;20175;-75
2022/09/13 10:35:29;;;;;;;2.78;1.38;;;25.80;99.90;;;;;;6275205;22;20237;-75
2022/09/13 10:37:56;;;;;;;3.35;1.70;;;26.00;99.90;;;;;;6273823;22;20645;-74
2022/09/13 10:40:28;;;;;;;1.70;1.30;;;25.90;99.90;;;;;;6274770;22;20217;-75
2022/09/13 10:42:58;;;;;;;1.67;1.13;;;25.70;99.90;;;;;;6274793;22;20198;-74
2022/09/13 10:45:27;;;;;;;3.28;1.50;;;25.70;99.90;;;;;;6274490;22;20179;-77
2022/09/13 10:47:55;;;;;;;2.03;0.90;;;25.90;99.90;;;;;;6274192;22;20183;-73
2022/09/13 10:50:26;;;;;;;4.43;1.38;;;26.20;99.90;;;;;;6273987;22;20698;-76
2022/09/13 10:52:54;;;;;;;2.03;1.17;;;26.40;99.90;;;;;;6274025;22;20670;-76
2022/09/13 10:55:34;;;;;;;4.20;1.20;;;26.50;99.90;;;;;;6274544;22;20206;-74
2022/09/13 10:58:17;;;;;;;2.90;1.08;;;26.20;99.90;;;;;;6270648;22;20201;-71
2022/09/13 11:00:58;;;;;;;3.50;1.45;;;26.30;99.90;;;;;;6274510;22;20201;-72
2022/09/13 11:03:35;;;;;;;2.30;1.20;;;26.30;99.90;;;;;;6276813;22;20178;-73
2022/09/13 11:06:11;;;;;;;2.45;1.25;;;26.50;99.90;;;;;;6277071;22;20484;-71
2022/09/13 11:08:47;;;;;;;2.75;1.63;;;26.20;99.90;;;;;;6277724;22;20649;-73
2022/09/13 11:11:22;;;;;;;2.25;1.20;;;26.20;99.90;;;;;;6277442;22;20199;-70
2022/09/13 11:14:02;;;;;;;2.05;1.05;;;26.00;99.90;;;;;;6277752;22;20202;-72
2022/09/13 11:16:44;;;;;;;1.70;1.10;;;26.10;99.90;;;;;;6277641;22;20181;-70
2022/09/13 11:19:27;;;;;;;1.73;1.20;;;26.30;99.90;;;;;;6277969;22;20182;-70
2022/09/13 11:22:10;;;;;;;1.67;1.10;;;26.40;99.90;;;;;;6277546;22;20635;-72
2022/09/13 11:24:56;;;;;;;1.90;1.13;;;26.50;99.90;;;;;;6277485;22;20643;-72
2022/09/13 11:27:35;;;;;;;2.58;1.23;;;26.50;99.90;;;;;;6277171;22;20706;-71
2022/09/13 11:30:13;;;;;;;2.70;1.10;;;26.30;99.90;;;;;;6277725;22;20195;-71
2022/09/13 11:33:08;;;;;;;2.05;1.08;;;26.30;99.90;;;;;;6277383;22;20210;-72
2022/09/13 11:35:49;;;;;;;1.55;1.10;;;26.40;99.90;;;;;;6277139;22;20228;-72
2022/09/13 11:38:35;;;;;;;2.25;0.98;;;26.30;99.90;;;;;;6277300;22;20181;-72
2022/09/13 11:41:13;;;;;;;2.75;1.25;;;26.10;99.90;;;;;;6275516;22;20199;-72
2022/09/13 11:44:00;;;;;;;1.23;1.00;;;26.10;99.90;;;;;;6277039;22;20204;-73
2022/09/13 11:46:38;;;;;;;1.95;1.17;;;26.30;99.90;;;;;;6277406;22;20507;-73
2022/09/13 11:49:37;;;;;;;1.33;0.98;;;26.30;99.90;;;;;;6277313;22;20225;-73
2022/09/13 11:52:15;;;;;;;1.42;1.00;;;26.30;99.90;;;;;;6277158;22;20627;-71
2022/09/13 11:55:01;;;;;;;2.90;1.60;;;26.40;99.90;;;;;;6277203;22;20210;-72
2022/09/13 11:57:33;;;;;;;2.10;1.35;;;26.50;99.90;;;;;;6277738;22;20174;-73
2022/09/13 12:00:04;;;;;;;2.95;1.20;;;26.40;99.90;;;;;;6277257;22;20205;-73
2022/09/13 12:02:40;;;;;;;1.95;1.10;;;26.60;99.90;;;;;;6277670;22;20183;-71
2022/09/13 12:05:10;;;;;;;1.83;1.00;;;26.80;99.90;;;;;;6277430;22;20174;-74
2022/09/13 12:07:41;;;;;;;5.03;1.08;;;27.00;99.90;;;;;;6277387;22;20175;-71
2022/09/13 12:10:17;;;;;;;2.78;1.25;;;27.10;99.90;;;;;;6276340;22;20199;-73
2022/09/13 12:12:48;;;;;;;1.85;1.00;;;27.00;99.90;;;;;;6276787;22;20182;-72
2022/09/13 12:15:17;;;;;;;2.00;1.13;;;27.10;99.90;;;;;;6276611;22;20203;-72
2022/09/13 12:17:48;;;;;;;3.45;1.45;;;27.10;99.90;;;;;;6276337;22;20186;-72
2022/09/13 12:20:20;;;;;;;2.45;1.00;;;27.20;99.90;;;;;;6276675;22;20195;-71
2022/09/13 12:22:50;;;;;;;1.45;1.17;;;27.10;99.90;;;;;;6277078;22;20182;-69
2022/09/13 12:25:22;;;;;;;1.65;1.15;;;27.00;99.90;;;;;;6277155;22;20181;-70
2022/09/13 12:27:56;;;;;;;2.45;1.25;;;26.80;99.90;;;;;;6276982;22;20257;-68
2022/09/13 12:30:25;;;;;;;2.10;1.20;;;26.80;99.90;;;;;;6276267;22;20199;-69
2022/09/13 12:32:52;;;;;;;2.47;0.98;;;26.80;99.90;;;;;;6276744;22;20185;-69
2022/09/13 12:35:26;;;;;;;3.28;0.93;;;26.80;99.90;;;;;;6276753;22;20207;-69
2022/09/13 12:38:14;;;;;;;1.83;1.10;;;27.00;99.90;;;;;;6276646;22;20611;-68
2022/09/13 12:41:14;;;;;;;2.00;1.17;;;27.00;99.90;;;;;;6277276;22;20651;-71
2022/09/13 12:44:12;;;;;;;3.03;1.45;;;26.70;99.90;;;;;;6267962;22;20675;-69
2022/09/13 12:46:58;;;;;;;2.03;1.30;;;26.30;99.90;;;;;;6276556;22;20181;-70
2022/09/13 12:49:47;;;;;;;3.17;1.08;;;26.10;99.90;;;;;;6276714;22;20181;-69
2022/09/13 12:52:30;;;;;;;3.33;1.00;;;26.10;99.90;;;;;;6276882;22;20483;-73
2022/09/13 12:55:42;;;;;;;1.40;1.10;;;26.30;99.90;;;;;;6276886;22;20207;-68
2022/09/13 12:58:28;;;;;;;3.20;1.13;;;26.30;99.90;;;;;;6182392;23;20187;-69
2022/09/13 13:01:07;;;;;;;2.58;1.58;;;26.40;99.90;;;;;;6274845;22;20201;-69
2022/09/13 13:03:43;;;;;;;1.23;1.10;;;26.20;99.90;;;;;;6271699;22;20178;-70
2022/09/13 13:06:20;;;;;;;3.83;1.20;;;26.20;99.90;;;;;;6275434;22;20184;-69
2022/09/13 13:08:51;;;;;;;1.70;1.02;;;26.30;99.90;;;;;;6276460;22;20174;-70
2022/09/13 13:11:22;;;;;;;1.75;1.27;;;26.20;99.90;;;;;;6276686;22;20201;-70
2022/09/13 13:13:57;;;;;;;1.67;1.05;;;26.00;99.90;;;;;;6276502;22;20175;-70
2022/09/13 13:16:28;;;;;;;3.20;1.20;;;26.00;99.90;;;;;;6276334;22;20546;-69
2022/09/13 13:18:56;;;;;;;2.70;1.10;;;26.00;99.90;;;;;;6276121;22;20174;-70
2022/09/13 13:21:32;;;;;;;2.80;1.20;;;26.00;99.90;;;;;;6276145;22;20201;-69
2022/09/13 13:24:45;;;;;;;1.55;1.15;;;25.90;99.90;;;;;;6275767;22;20481;-69
2022/09/13 13:27:36;;;;;;;3.78;1.27;;;25.80;99.90;;;;;;6221042;22;20512;-69
2022/09/13 13:30:40;;;;;;;3.88;1.38;;;25.50;99.90;;;;;;6275357;22;20203;-69
2022/09/13 13:33:15;;;;;;;1.80;1.30;;;25.30;99.90;;;;;;6276038;22;20179;-69
2022/09/13 13:35:41;;;;;;;2.47;1.40;;;25.30;99.90;;;;;;6276155;22;20232;-69
2022/09/13 13:38:17;;;;;;;2.22;1.40;;;25.50;99.90;;;;;;6275935;22;20174;-68
2022/09/13 13:40:47;;;;;;;1.50;1.17;;;25.40;99.90;;;;;;6276034;22;20198;-68
2022/09/13 13:43:30;;;;;;;2.65;1.15;;;25.40;99.90;;;;;;6274702;22;20174;-70
2022/09/13 13:46:18;;;;;;;3.30;1.23;;;25.50;99.90;;;;;;6274482;22;20185;-69
2022/09/13 13:48:45;;;;;;;1.48;1.00;;;25.60;99.90;;;;;;6260622;22;20175;-70
2022/09/13 13:51:23;;;;;;;2.78;1.20;;;25.60;99.90;;;;;;6275949;22;20333;-69
2022/09/13 13:53:54;;;;;;;1.75;1.13;;;25.50;99.90;;;;;;6275370;22;20197;-70
2022/09/13 13:56:28;;;;;;;3.38;1.33;;;25.30;99.90;;;;;;6275812;22;20186;-70
2022/09/13 13:58:58;;;;;;;1.60;1.42;;;25.30;99.90;;;;;;6275221;22;20182;-69
2022/09/13 14:01:31;;;;;;;1.60;1.30;;;25.10;99.90;;;;;;6276051;22;20198;-71
2022/09/13 14:04:43;;;;;;;2.67;1.50;;;25.00;99.90;;;;;;6276050;22;20640;-70
2022/09/13 14:07:28;;;;;;;1.65;1.30;;;24.80;99.90;;;;;;6276221;22;20186;-74
2022/09/13 14:10:01;;;;;;;4.03;1.25;;;24.80;99.90;;;;;;6276305;22;20248;-71
2022/09/13 14:12:34;;;;;;;3.78;1.40;;;24.80;99.90;;;;;;6276288;22;20202;-71
2022/09/13 14:15:34;;;;;;;2.90;1.30;;;24.80;99.90;;;;;;6276249;22;20304;-71
2022/09/13 14:18:25;;;;;;;2.20;1.45;;;24.90;99.90;;;;;;6268418;22;20185;-71
2022/09/13 14:21:04;;;;;;;2.70;1.33;;;24.90;99.90;;;;;;6276036;22;20666;-72
2022/09/13 14:23:30;;;;;;;2.85;1.40;;;24.80;99.90;;;;;;6276338;22;20264;-72
2022/09/13 14:25:59;;;;;;;2.80;1.40;;;24.60;99.90;;;;;;6276229;22;20178;-71
2022/09/13 14:28:27;;;;;;;3.38;1.40;;;24.40;99.90;;;;;;6276284;22;20175;-72
2022/09/13 14:30:57;;;;;;;2.90;1.73;;;24.40;99.90;;;;;;6276230;22;20277;-72
2022/09/13 14:33:30;;;;;;;1.52;1.30;;;24.20;99.90;;;;;;6276336;22;20174;-72
2022/09/13 14:36:01;;;;;;;2.25;1.60;;;24.10;99.90;;;;;;6276409;22;20203;-73
2022/09/13 14:38:32;;;;;;;2.60;1.30;;;24.10;99.90;;;;;;6277329;22;20631;-73
2022/09/13 14:41:02;;;;;;;1.70;1.30;;;24.10;99.90;;;;;;6278059;22;20659;-71
2022/09/13 14:43:31;;;;;;;3.25;1.42;;;24.10;99.90;;;;;;6277823;22;20183;-72
2022/09/13 14:46:05;;;;;;;1.90;1.40;;;24.10;99.90;;;;;;6278163;22;20183;-77
2022/09/13 14:48:39;;;;;;;2.72;1.60;;;24.00;99.90;;;;;;6278267;22;20196;-75
2022/09/13 14:51:13;;;;;;;3.03;1.58;;;23.80;99.90;;;;;;6278200;22;20209;-77
2022/09/13 14:53:43;;;;;;;3.22;1.50;;;23.70;99.90;;;;;;6277822;22;20181;-74
2022/09/13 14:56:16;;;;;;;3.65;1.70;;;23.70;99.90;;;;;;6278263;22;20207;-73
2022/09/13 14:58:46;;;;;;;2.00;1.45;;;23.60;99.90;;;;;;6278177;22;20181;-73
2022/09/13 15:01:16;;;;;;;2.60;1.67;;;23.30;99.90;;;;;;6277912;22;20201;-72
2022/09/13 15:03:45;;;;;;;3.13;1.58;;;23.30;99.90;;;;;;6277818;22;20179;-77
2022/09/13 15:06:22;;;;;;;3.05;1.50;;;23.40;99.90;;;;;;6273939;22;20179;-74
2022/09/13 15:08:49;;;;;;;2.85;1.83;;;23.50;99.90;;;;;;6278329;22;20178;-69
2022/09/13 15:11:27;;;;;;;2.05;1.50;;;23.70;99.90;;;;;;6277845;22;20677;-70
2022/09/13 15:14:23;;;;;;;1.95;1.60;;;23.80;99.90;;;;;;6277457;22;20207;-70
2022/09/13 15:16:52;;;;;;;3.95;1.48;;;23.80;99.90;;;;;;6277292;22;20635;-77
2022/09/13 15:19:36;;;;;;;2.55;1.60;;;23.90;99.90;;;;;;6277437;22;20175;-70
2022/09/13 15:22:14;;;;;;;2.10;1.42;;;24.00;99.90;;;;;;6277663;22;20175;-70
2022/09/13 15:24:45;;;;;;;6.35;1.70;;;24.00;99.90;;;;;;6276943;22;20499;-69
2022/09/13 15:27:22;;;;;;;4.03;1.60;;;24.00;99.90;;;;;;6276698;22;20232;-69
2022/09/13 15:29:50;;;;;;;4.32;1.35;;;23.90;99.90;;;;;;6277893;22;20281;-69
2022/09/13 15:32:29;;;;;;;2.28;1.70;;;23.90;99.90;;;;;;6278057;22;20254;-70
2022/09/13 15:34:59;;;;;;;3.75;1.50;;;23.80;99.90;;;;;;6277823;22;20724;-69
2022/09/13 15:37:35;;;;;;;3.40;2.03;;;23.70;99.90;;;;;;6278018;22;20175;-69
2022/09/13 15:40:17;;;;;;;4.78;2.08;;;23.60;99.90;;;;;;6277754;22;20201;-69
2022/09/13 15:42:52;;;;;;;2.97;1.95;;;23.60;99.90;;;;;;6277804;22;20644;-69
2022/09/13 15:45:20;;;;;;;2.25;1.73;;;23.60;99.90;;;;;;6277504;22;20182;-69
2022/09/13 15:47:48;;;;;;;3.03;1.67;;;23.70;99.90;;;;;;6278066;22;20213;-69
2022/09/13 15:50:25;;;;;;;2.42;1.67;;;23.80;99.90;;;;;;6277020;22;20270;-70
2022/09/13 15:52:53;;;;;;;3.15;1.92;;;23.80;99.90;;;;;;6277908;22;20531;-69
2022/09/13 15:55:20;;;;;;;3.67;1.67;;;23.80;99.90;;;;;;6277733;22;20206;-69
2022/09/13 15:57:47;;;;;;;3.15;1.75;;;23.80;99.90;;;;;;6277710;22;20181;-70
2022/09/13 16:00:19;;;;;;;2.47;1.92;;;23.90;99.90;;;;;;6277594;22;20199;-70
2022/09/13 16:02:46;;;;;;;2.70;1.73;;;24.00;99.90;;;;;;6277988;22;20181;-70
2022/09/13 16:05:13;;;;;;;2.92;1.90;;;24.00;99.90;;;;;;6277491;22;20702;-70
2022/09/13 16:07:42;;;;;;;3.60;2.17;;;24.00;99.90;;;;;;6278006;22;20286;-70
2022/09/13 16:10:14;;;;;;;3.90;1.88;;;24.00;99.90;;;;;;6277850;22;20244;-70
2022/09/13 16:12:42;;;;;;;4.55;1.80;;;23.90;99.90;;;;;;6277726;22;20232;-70
2022/09/13 16:15:11;;;;;;;2.38;1.60;;;23.80;99.90;;;;;;6277135;22;20203;-69
2022/09/13 16:17:37;;;;;;;3.28;1.50;;;23.80;99.90;;;;;;6277462;22;20175;-71
2022/09/13 16:20:06;;;;;;;2.65;1.58;;;23.80;99.90;;;;;;6277462;22;20694;-69
2022/09/13 16:22:33;;;;;;;3.85;2.00;;;23.80;99.90;;;;;;6277206;22;20225;-69
2022/09/13 16:25:01;;;;;;;1.98;1.75;;;23.60;99.90;;;;;;6277487;22;20179;-69
2022/09/13 16:27:28;;;;;;;3.05;1.70;;;23.50;99.90;;;;;;6277290;22;20179;-70
2022/09/13 16:29:55;;;;;;;2.78;1.45;;;23.50;99.90;;;;;;6277042;22;20773;-69
2022/09/13 16:32:21;;;;;;;2.30;1.50;;;23.50;99.90;;;;;;6277565;22;20189;-69
2022/09/13 16:34:48;;;;;;;6.10;2.17;;;23.50;99.90;;;;;;6276951;22;20480;-69
2022/09/13 16:37:16;;;;;;;2.38;1.77;;;23.40;99.90;;;;;;6277706;22;20174;-69
2022/09/13 16:39:44;;;;;;;2.58;1.85;;;23.40;99.90;;;;;;6277051;22;20178;-68
2022/09/13 16:42:13;;;;;;;3.30;1.73;;;23.20;99.90;;;;;;6277276;22;20174;-67
2022/09/13 16:44:40;;;;;;;3.17;1.73;;;23.10;99.90;;;;;;6276905;22;20213;-68
2022/09/13 16:47:07;;;;;;;4.28;2.20;;;22.90;99.90;;;;;;6277398;22;20189;-68
2022/09/13 16:49:34;;;;;;;3.78;1.63;;;22.90;99.90;;;;;;6276901;22;20635;-71
2022/09/13 16:52:02;;;;;;;3.78;1.85;;;22.80;99.90;;;;;;6277278;22;20508;-67
2022/09/13 16:54:30;;;;;;;3.85;2.10;;;22.70;99.90;;;;;;6276897;22;20635;-69
2022/09/13 16:56:57;;;;;;;3.28;2.00;;;22.60;99.90;;;;;;6276942;22;20206;-75
2022/09/13 16:59:25;;;;;;;2.80;2.15;;;22.60;99.90;;;;;;6276937;22;20179;-75
2022/09/13 17:01:52;;;;;;;3.65;2.30;;;22.50;99.90;;;;;;6276716;22;20213;-70
2022/09/13 17:04:19;;;;;;;4.93;2.38;;;22.50;99.90;;;;;;6276514;22;20179;-68
2022/09/13 17:06:46;;;;;;;3.67;2.30;;;22.40;99.90;;;;;;6276654;22;20179;-69
2022/09/13 17:09:13;;;;;;;3.78;2.13;;;22.40;99.90;;;;;;6276624;22;20522;-68
2022/09/13 17:11:42;;;;;;;8.00;2.63;;;22.30;99.90;;;;;;6277279;22;20195;-68
2022/09/13 17:14:12;;;;;;;3.38;2.50;;;22.20;99.90;;;;;;6276722;22;20198;-68
2022/09/13 17:16:43;;;;;;;3.45;2.20;;;22.10;99.90;;;;;;6276847;22;20202;-73
2022/09/13 17:19:14;;;;;;;5.85;2.00;;;21.90;99.90;;;;;;6277101;22;20236;-69
2022/09/13 17:21:41;;;;;;;2.78;1.88;;;21.70;99.90;;;;;;6276931;22;20195;-68
2022/09/13 17:24:08;;;;;;;3.08;2.05;;;21.70;99.90;;;;;;6277111;22;20175;-77
2022/09/13 17:26:35;;;;;;;2.17;1.60;;;21.60;99.90;;;;;;6276597;22;20186;-69
2022/09/13 17:29:02;;;;;;;3.20;2.03;;;21.50;99.90;;;;;;6277156;22;20185;-69
2022/09/13 17:31:29;;;;;;;2.67;1.70;;;21.40;99.90;;;;;;6277110;22;20523;-70
2022/09/13 17:33:57;;;;;;;2.20;2.00;;;21.40;99.90;;;;;;6276930;22;20174;-68
2022/09/13 17:36:24;;;;;;;4.20;2.40;;;21.10;99.90;;;;;;6276416;22;20670;-69
2022/09/13 17:38:55;;;;;;;3.05;2.10;;;21.10;99.90;;;;;;6277100;22;20175;-68
2022/09/13 17:41:22;;;;;;;4.85;2.45;;;21.20;99.90;;;;;;6276704;22;20686;-75
2022/09/13 17:43:49;;;;;;;2.85;2.03;;;21.20;99.90;;;;;;6276461;22;20186;-68
2022/09/13 17:46:19;;;;;;;4.55;2.47;;;21.10;99.90;;;;;;6276788;22;20261;-69
2022/09/13 17:48:46;;;;;;;3.58;2.40;;;21.00;99.90;;;;;;6276635;22;20178;-68
2022/09/13 17:51:16;;;;;;;4.07;2.13;;;21.00;99.90;;;;;;6276873;22;20195;-68
2022/09/13 17:53:46;;;;;;;3.47;2.13;;;20.80;99.90;;;;;;6276751;22;20206;-68
2022/09/13 17:56:17;;;;;;;3.67;2.20;;;20.80;99.90;;;;;;6276757;22;20484;-69
2022/09/13 17:58:44;;;;;;;2.92;1.98;;;20.70;99.90;;;;;;6276716;22;20175;-68
2022/09/13 18:01:11;;;;;;;2.92;1.95;;;20.70;99.90;;;;;;6276602;22;20195;-67
2022/09/13 18:03:38;;;;;;;2.78;2.10;;;20.70;99.90;;;;;;6276275;22;20737;-68
2022/09/13 18:06:07;;;;;;;2.78;1.85;;;20.60;99.90;;;;;;6276194;22;20185;-68
2022/09/13 18:08:37;;;;;;;4.25;2.13;;;20.60;99.90;;;;;;6276345;22;20175;-68
2022/09/13 18:11:05;;;;;;;3.55;2.25;;;20.60;99.90;;;;;;6275946;22;20195;-69
2022/09/13 18:13:33;;;;;;;3.42;2.17;;;20.60;99.90;;;;;;6276120;22;20615;-69
2022/09/13 18:16:00;;;;;;;6.15;2.17;;;20.60;99.90;;;;;;6276510;22;20228;-68
2022/09/13 18:18:27;;;;;;;3.13;2.08;;;20.60;99.90;;;;;;6276554;22;20254;-68
2022/09/13 18:20:54;;;;;;;3.08;2.20;;;20.60;99.90;;;;;;6276483;22;20256;-71
2022/09/13 18:23:21;;;;;;;4.00;2.40;;;20.50;99.90;;;;;;6276554;22;20693;-68
2022/09/13 18:25:58;;;;;;;2.22;1.98;;;20.50;99.90;;;;;;6276199;22;20653;-68
2022/09/13 18:28:25;;;;;;;3.58;2.25;;;20.50;99.90;;;;;;6276149;22;20178;-71
2022/09/13 18:30:52;;;;;;;3.00;2.28;;;20.50;99.90;;;;;;6276368;22;20195;-76
2022/09/13 18:33:19;;;;;;;4.07;2.22;;;20.40;99.90;;;;;;6276571;22;20175;-68
2022/09/13 18:35:56;;;;;;;2.90;2.22;;;20.40;99.90;;;;;;6275664;22;20747;-69
2022/09/13 18:38:23;;;;;;;3.83;2.30;;;20.30;99.90;;;;;;6275984;22;20688;-68
2022/09/13 18:40:59;;;;;;;3.88;2.10;;;20.30;99.90;;;;;;6276405;22;20531;-68
2022/09/13 18:43:26;;;;;;;2.88;2.10;;;20.40;99.90;;;;;;6275992;22;20183;-70
2022/09/13 18:45:57;;;;;;;4.32;2.20;;;20.40;99.90;;;;;;6276344;22;20183;-74
2022/09/13 18:48:24;;;;;;;3.45;2.33;;;20.40;99.90;;;;;;6276448;22;20249;-72
2022/09/13 18:50:51;;;;;;;3.83;2.30;;;20.30;99.90;;;;;;6276366;22;20195;-71
2022/09/13 18:53:18;;;;;;;2.60;2.15;;;20.20;99.90;;;;;;6276147;22;20175;-69
2022/09/13 18:55:45;;;;;;;6.95;2.30;;;20.20;99.90;;;;;;6276326;22;20266;-68
2022/09/13 18:58:13;;;;;;;3.35;2.25;;;20.20;99.90;;;;;;6276295;22;20175;-68
2022/09/13 19:00:40;;;;;;;2.90;2.05;;;20.20;99.90;;;;;;6276158;22;20202;-68
2022/09/13 19:03:07;;;;;;;3.30;2.45;;;20.10;99.90;;;;;;6276343;22;20280;-69
2022/09/13 19:05:37;;;;;;;2.53;2.00;;;20.10;99.90;;;;;;6276300;22;20175;-68
2022/09/13 19:08:07;;;;;;;3.75;2.10;;;20.10;99.90;;;;;;6276303;22;20186;-69
2022/09/13 19:10:34;;;;;;;3.38;2.20;;;20.00;99.90;;;;;;6275891;22;20567;-69
2022/09/13 19:13:01;;;;;;;6.60;3.15;;;20.00;99.90;;;;;;6276515;22;20175;-69
2022/09/13 19:15:29;;;;;;;3.38;2.25;;;20.10;99.90;;;;;;6276382;22;20257;-77
2022/09/13 19:17:56;;;;;;;3.53;2.50;;;20.10;99.90;;;;;;6275780;22;20203;-69
2022/09/13 19:20:23;;;;;;;3.90;2.40;;;20.00;99.90;;;;;;6275796;22;20201;-68
2022/09/13 19:22:51;;;;;;;2.70;2.22;;;20.00;99.90;;;;;;6276153;22;20500;-68
2022/09/13 19:25:17;;;;;;;4.13;2.78;;;20.00;99.90;;;;;;6277722;22;20182;-68
2022/09/13 19:27:44;;;;;;;3.38;2.22;;;20.00;99.90;;;;;;6277951;22;20183;-71
2022/09/13 19:30:12;;;;;;;4.20;2.38;;;20.10;99.90;;;;;;6277460;22;20195;-69
2022/09/13 19:32:40;;;;;;;2.78;2.17;;;20.00;99.90;;;;;;6277494;22;20624;-69
2022/09/13 19:35:08;;;;;;;5.53;2.50;;;20.10;99.90;;;;;;6278106;22;20274;-68
2022/09/13 19:37:35;;;;;;;3.35;2.15;;;20.00;99.90;;;;;;6277885;22;20229;-68
2022/09/13 19:40:02;;;;;;;3.72;2.10;;;20.00;99.90;;;;;;6277840;22;20195;-69
2022/09/13 19:42:29;;;;;;;2.90;2.10;;;20.00;99.90;;;;;;6277865;22;20253;-69
2022/09/13 19:44:56;;;;;;;3.28;2.35;;;19.90;99.90;;;;;;6277161;22;20193;-69
2022/09/13 19:47:23;;;;;;;3.15;2.35;;;19.90;99.90;;;;;;6277758;22;20179;-71
2022/09/13 19:49:51;;;;;;;3.42;2.25;;;20.00;99.90;;;;;;6277642;22;20194;-77
2022/09/13 19:52:18;;;;;;;2.95;2.10;;;20.00;99.90;;;;;;6277850;22;20181;-75
2022/09/13 19:54:44;;;;;;;3.38;2.65;;;20.00;99.90;;;;;;6277765;22;20193;-71
2022/09/13 19:57:11;;;;;;;4.22;2.60;;;20.00;99.90;;;;;;6277258;22;20534;-69
2022/09/13 19:59:38;;;;;;;4.15;2.22;;;19.90;99.90;;;;;;6277134;22;20647;-68
2022/09/13 20:02:05;;;;;;;3.40;2.33;;;19.90;99.90;;;;;;6277382;22;20214;-69
2022/09/13 20:04:32;;;;;;;3.90;2.88;;;19.90;99.90;;;;;;6277840;22;20228;-69
2022/09/13 20:07:00;;;;;;;3.05;2.55;;;19.90;99.90;;;;;;6277204;22;20178;-77
2022/09/13 20:09:27;;;;;;;3.90;2.38;;;19.90;99.90;;;;;;6277542;22;20174;-68
2022/09/13 20:11:59;;;;;;;2.85;2.00;;;19.90;99.90;;;;;;6277617;22;20257;-70
2022/09/13 20:14:26;;;;;;;3.53;2.33;;;20.00;99.90;;;;;;6277867;22;20232;-77
2022/09/13 20:16:54;;;;;;;5.22;2.60;;;20.00;99.90;;;;;;6277339;22;20747;-70
2022/09/13 20:19:21;;;;;;;4.45;2.50;;;20.00;99.90;;;;;;6277319;22;20640;-73
2022/09/13 20:21:49;;;;;;;3.20;2.50;;;19.90;99.90;;;;;;6277324;22;20222;-75
2022/09/13 20:24:17;;;;;;;4.63;2.50;;;19.90;99.90;;;;;;6277295;22;20186;-70
2022/09/13 20:26:44;;;;;;;3.90;2.58;;;19.90;99.90;;;;;;6277802;22;20183;-69
2022/09/13 20:29:12;;;;;;;4.68;2.70;;;19.90;99.90;;;;;;6277654;22;20714;-69
2022/09/13 20:31:39;;;;;;;3.88;2.50;;;19.80;99.90;;;;;;6277667;22;20690;-69
2022/09/13 20:34:08;;;;;;;3.20;2.50;;;19.90;99.90;;;;;;6278023;22;20213;-69
2022/09/13 20:36:37;;;;;;;3.35;2.53;;;20.20;99.90;;;;;;6277775;22;20225;-69
2022/09/13 20:39:05;;;;;;;3.17;2.33;;;20.20;99.90;;;;;;6277471;22;20190;-73
2022/09/13 20:41:33;;;;;;;3.33;2.60;;;20.00;99.90;;;;;;6277722;22;20552;-71
2022/09/13 20:44:00;;;;;;;4.05;2.55;;;19.70;99.90;;;;;;6276825;22;20187;-69
2022/09/13 20:46:27;;;;;;;4.22;2.50;;;19.70;99.90;;;;;;6277345;22;20183;-70
2022/09/13 20:48:54;;;;;;;3.20;2.20;;;19.70;99.90;;;;;;6277529;22;20175;-70
2022/09/13 20:51:23;;;;;;;4.68;2.88;;;19.70;99.90;;;;;;6277441;22;20205;-72
2022/09/13 20:53:54;;;;;;;5.30;2.53;;;19.60;99.90;;;;;;6277119;22;20179;-73
2022/09/13 20:56:22;;;;;;;4.70;3.33;;;19.70;99.90;;;;;;6277208;22;20174;-69
2022/09/13 20:58:53;;;;;;;4.43;2.63;;;19.70;99.90;;;;;;6277284;22;20175;-76
2022/09/13 21:01:21;;;;;;;3.90;2.75;;;19.60;99.90;;;;;;6277245;22;20558;-69
2022/09/13 21:03:50;;;;;;;5.43;3.00;;;19.60;99.90;;;;;;6277010;22;20657;-70
2022/09/13 21:06:19;;;;;;;3.17;2.53;;;19.50;99.90;;;;;;6276957;22;20623;-70
2022/09/13 21:08:48;;;;;;;3.63;2.30;;;19.60;99.90;;;;;;6277465;22;20183;-70
2022/09/13 21:11:16;;;;;;;4.72;3.10;;;19.70;99.90;;;;;;6276930;22;20198;-73
2022/09/13 21:13:45;;;;;;;4.00;2.63;;;19.60;99.90;;;;;;6277226;22;20178;-69
2022/09/13 21:16:15;;;;;;;4.53;2.55;;;19.70;99.90;;;;;;6276552;22;20523;-68
2022/09/13 21:18:43;;;;;;;3.97;3.15;;;19.70;99.90;;;;;;6276857;22;20646;-70
2022/09/13 21:21:13;;;;;;;3.97;2.70;;;19.70;99.90;;;;;;6277030;22;20579;-70
2022/09/13 21:23:40;;;;;;;5.07;2.60;;;19.70;99.90;;;;;;6276909;22;20662;-73
2022/09/13 21:26:10;;;;;;;4.05;2.80;;;19.70;99.90;;;;;;6277209;22;20181;-70
2022/09/13 21:28:37;;;;;;;4.68;3.58;;;19.60;99.90;;;;;;6276817;22;20183;-70
2022/09/13 21:31:06;;;;;;;3.58;2.47;;;19.70;99.90;;;;;;6276935;22;20195;-72
2022/09/13 21:33:35;;;;;;;3.80;2.53;;;19.80;99.90;;;;;;6276714;22;20499;-69
